createdAt,value
2023-03-04T00:00:28.490Z,24.23
2023-03-04T00:02:55.191Z,23.75
2023-03-04T00:05:21.897Z,23.60
2023-03-04T00:07:48.639Z,22.48
2023-03-04T00:10:15.542Z,24.55
2023-03-04T00:12:42.261Z,25.60
2023-03-04T00:15:09.474Z,24.60
2023-03-04T00:17:36.160Z,25.80
2023-03-04T00:20:02.947Z,24.80
2023-03-04T00:22:29.654Z,25.38
2023-03-04T00:24:56.401Z,24.67
2023-03-04T00:27:23.197Z,24.73
2023-03-04T00:29:50.082Z,25.40
2023-03-04T00:32:18.458Z,25.30
2023-03-04T00:34:45.304Z,24.95
2023-03-04T00:37:12.098Z,24.60
2023-03-04T00:39:38.856Z,25.02
2023-03-04T00:42:05.617Z,26.10
2023-03-04T00:44:32.403Z,23.85
2023-03-04T00:46:59.502Z,24.08
2023-03-04T00:49:26.284Z,23.85
2023-03-04T00:51:53.049Z,24.70
2023-03-04T00:54:19.813Z,23.42
2023-03-04T00:56:46.721Z,22.55
2023-03-04T00:59:13.378Z,23.35
2023-03-04T01:01:40.187Z,24.33
2023-03-04T01:04:06.887Z,24.60
2023-03-04T01:06:33.651Z,25.13
2023-03-04T01:09:00.355Z,23.45
2023-03-04T01:11:27.054Z,23.52
2023-03-04T01:13:53.717Z,24.30
2023-03-04T01:16:20.466Z,24.17
2023-03-04T01:18:47.856Z,24.70
2023-03-04T01:21:14.877Z,23.05
2023-03-04T01:23:41.684Z,23.90
2023-03-04T01:26:08.467Z,23.50
2023-03-04T01:28:36.032Z,25.20
2023-03-04T01:31:03.820Z,24.52
2023-03-04T01:33:31.432Z,25.20
2023-03-04T01:35:58.453Z,23.05
2023-03-04T01:38:25.189Z,24.17
2023-03-04T01:40:52.113Z,24.30
2023-03-04T01:43:25.290Z,23.45
2023-03-04T01:48:23.186Z,22.48
2023-03-04T01:50:49.934Z,24.45
2023-03-04T01:53:27.479Z,23.23
2023-03-04T01:55:59.046Z,23.35
2023-03-04T01:58:28.857Z,22.60
2023-03-04T02:00:55.697Z,22.77
2023-03-04T02:03:22.540Z,21.88
2023-03-04T02:05:50.624Z,23.50
2023-03-04T02:08:18.988Z,23.05
2023-03-04T02:10:45.725Z,22.05
2023-03-04T02:13:12.513Z,22.25
2023-03-04T02:15:39.429Z,22.05
2023-03-04T02:18:23.217Z,20.98
2023-03-04T02:20:49.970Z,21.25
2023-03-04T02:23:39.978Z,21.33
2023-03-04T02:26:09.803Z,20.77
2023-03-04T02:28:36.567Z,22.67
2023-03-04T02:31:03.703Z,21.58
2023-03-04T02:33:30.492Z,21.17
2023-03-04T02:35:57.209Z,21.30
2023-03-04T02:38:23.971Z,20.98
2023-03-04T02:40:51.946Z,19.48
2023-03-04T02:43:18.963Z,19.58
2023-03-04T02:45:50.100Z,19.83
2023-03-04T02:48:20.950Z,19.85
2023-03-04T02:50:49.554Z,20.65
2023-03-04T02:53:16.660Z,20.58
2023-03-04T02:55:43.933Z,20.30
2023-03-04T02:58:11.018Z,19.30
2023-03-04T03:00:37.834Z,19.63
2023-03-04T03:03:04.677Z,21.60
2023-03-04T03:05:32.771Z,19.77
2023-03-04T03:07:59.469Z,19.35
2023-03-04T03:10:26.402Z,18.90
2023-03-04T03:12:53.096Z,20.92
2023-03-04T03:15:20.282Z,20.63
2023-03-04T03:17:47.118Z,19.17
2023-03-04T03:20:14.636Z,19.58
2023-03-04T03:22:41.901Z,20.50
2023-03-04T03:25:09.855Z,20.02
2023-03-04T03:27:36.578Z,20.83
2023-03-04T03:30:03.968Z,20.88
2023-03-04T03:32:30.693Z,21.50
2023-03-04T03:34:57.413Z,19.50
2023-03-04T03:37:24.052Z,20.90
2023-03-04T03:39:50.715Z,18.45
2023-03-04T03:42:17.377Z,19.60
2023-03-04T03:44:44.067Z,18.85
2023-03-04T03:47:10.821Z,19.10
2023-03-04T03:49:37.496Z,21.65
2023-03-04T03:52:04.305Z,20.25
2023-03-04T03:54:30.964Z,21.38
2023-03-04T03:56:57.642Z,18.73
2023-03-04T03:59:24.306Z,21.83
2023-03-04T04:01:51.179Z,20.13
2023-03-04T04:04:18.031Z,18.55
2023-03-04T04:06:44.854Z,21.38
2023-03-04T04:09:11.571Z,20.50
2023-03-04T04:11:38.348Z,20.77
2023-03-04T04:14:05.025Z,21.67
2023-03-04T04:16:31.836Z,20.60
2023-03-04T04:18:58.534Z,20.50
2023-03-04T04:21:25.396Z,20.48
2023-03-04T04:23:52.137Z,21.08
2023-03-04T04:26:18.882Z,21.70
2023-03-04T04:28:45.568Z,21.45
2023-03-04T04:31:12.290Z,21.30
2023-03-04T04:33:38.960Z,21.45
2023-03-04T04:36:05.913Z,21.45
2023-03-04T04:38:32.590Z,20.25
2023-03-04T04:40:59.390Z,22.98
2023-03-04T04:43:26.137Z,20.65
2023-03-04T04:45:53.107Z,20.70
2023-03-04T04:48:19.857Z,22.90
2023-03-04T04:50:46.608Z,22.60
2023-03-04T04:53:14.223Z,20.88
2023-03-04T04:55:40.952Z,21.42
2023-03-04T04:58:07.972Z,21.48
2023-03-04T05:00:34.658Z,21.10
2023-03-04T05:03:01.407Z,20.85
2023-03-04T05:05:28.138Z,23.38
2023-03-04T05:07:54.849Z,22.65
2023-03-04T05:10:21.608Z,22.05
2023-03-04T05:12:48.290Z,22.63
2023-03-04T05:15:15.046Z,22.35
2023-03-04T05:17:41.726Z,23.42
2023-03-04T05:20:09.206Z,23.77
2023-03-04T05:22:35.949Z,20.52
2023-03-04T05:25:03.294Z,22.45
2023-03-04T05:27:29.954Z,22.75
2023-03-04T05:29:59.869Z,21.85
2023-03-04T05:32:26.799Z,23.10
2023-03-04T05:34:55.424Z,24.30
2023-03-04T05:37:22.247Z,22.55
2023-03-04T05:39:49.081Z,24.80
2023-03-04T05:42:16.899Z,24.95
2023-03-04T05:44:43.565Z,24.05
2023-03-04T05:47:10.250Z,25.13
2023-03-04T05:49:44.618Z,24.45
2023-03-04T05:52:11.392Z,26.15
2023-03-04T05:54:38.048Z,27.30
2023-03-04T05:57:04.737Z,28.80
2023-03-04T05:59:31.961Z,27.15
2023-03-04T06:01:58.662Z,26.02
2023-03-04T06:04:25.386Z,27.83
2023-03-04T06:06:52.194Z,24.85
2023-03-04T06:09:21.124Z,27.17
2023-03-04T06:11:47.909Z,23.08
2023-03-04T06:14:14.662Z,25.70
2023-03-04T06:16:41.351Z,25.88
2023-03-04T06:19:18.190Z,27.40
2023-03-04T06:21:44.852Z,25.95
2023-03-04T06:24:11.559Z,26.05
2023-03-04T06:26:38.512Z,25.80
2023-03-04T06:29:06.714Z,28.00
2023-03-04T06:31:34.638Z,26.42
2023-03-04T06:34:05.409Z,27.65
2023-03-04T06:36:32.106Z,27.42
2023-03-04T06:38:58.834Z,27.10
2023-03-04T06:41:25.503Z,27.83
2023-03-04T06:43:54.742Z,27.73
2023-03-04T06:46:21.559Z,27.77
2023-03-04T06:48:48.231Z,31.58
2023-03-04T06:51:15.311Z,27.38
2023-03-04T06:53:44.155Z,27.20
2023-03-04T06:56:11.675Z,26.40
2023-03-04T06:58:38.653Z,25.25
2023-03-04T07:01:13.512Z,26.85
2023-03-04T07:03:40.379Z,26.35
2023-03-04T07:06:07.296Z,24.15
2023-03-04T07:08:33.979Z,23.08
2023-03-04T07:11:00.766Z,22.58
2023-03-04T07:13:27.449Z,23.27
2023-03-04T07:15:54.415Z,21.20
2023-03-04T07:18:21.103Z,22.83
2023-03-04T07:20:47.780Z,21.65
2023-03-04T07:23:14.439Z,20.75
2023-03-04T07:25:41.141Z,21.88
2023-03-04T07:28:07.822Z,24.17
2023-03-04T07:30:34.569Z,22.65
2023-03-04T07:33:01.383Z,21.65
2023-03-04T07:35:28.144Z,21.10
2023-03-04T07:37:54.857Z,21.65
2023-03-04T07:40:21.600Z,20.92
2023-03-04T07:42:57.362Z,21.83
2023-03-04T07:45:24.793Z,20.02
2023-03-04T07:47:51.727Z,21.45
2023-03-04T07:50:18.729Z,20.23
2023-03-04T07:52:47.304Z,19.85
2023-03-04T07:55:15.571Z,20.38
2023-03-04T07:57:43.630Z,18.52
2023-03-04T08:00:11.840Z,18.58
2023-03-04T08:02:38.657Z,20.40
2023-03-04T08:05:05.880Z,20.60
2023-03-04T08:07:32.744Z,19.65
2023-03-04T08:09:59.523Z,20.23
2023-03-04T08:12:26.592Z,20.85
2023-03-04T08:14:53.206Z,20.58
2023-03-04T08:17:23.322Z,19.45
2023-03-04T08:19:51.085Z,18.75
2023-03-04T08:22:17.823Z,19.33
2023-03-04T08:24:45.702Z,19.77
2023-03-04T08:27:20.213Z,20.17
2023-03-04T08:29:46.863Z,21.75
2023-03-04T08:32:13.906Z,20.13
2023-03-04T08:34:41.108Z,20.38
2023-03-04T08:37:08.106Z,22.15
2023-03-04T08:42:11.402Z,18.83
2023-03-04T08:44:38.130Z,19.45
2023-03-04T08:47:04.891Z,19.13
2023-03-04T08:49:31.712Z,21.60
2023-03-04T08:51:58.447Z,20.52
2023-03-04T08:54:25.170Z,20.75
2023-03-04T08:56:52.119Z,21.45
2023-03-04T08:59:18.896Z,19.88
2023-03-04T09:01:46.709Z,20.33
2023-03-04T09:04:13.465Z,19.52
2023-03-04T09:06:40.279Z,21.13
2023-03-04T09:09:07.116Z,19.95
2023-03-04T09:11:34.348Z,21.38
2023-03-04T09:14:03.133Z,20.75
2023-03-04T09:16:29.910Z,19.92
2023-03-04T09:18:57.635Z,19.88
2023-03-04T09:21:26.060Z,20.35
2023-03-04T09:23:53.018Z,19.63
2023-03-04T09:26:22.662Z,20.85
2023-03-04T09:28:55.102Z,20.27
2023-03-04T09:31:22.106Z,20.60
2023-03-04T09:33:49.335Z,19.58
2023-03-04T09:36:16.583Z,18.85
2023-03-04T09:38:43.539Z,18.83
2023-03-04T09:41:23.949Z,19.55
2023-03-04T09:43:51.034Z,16.05
2023-03-04T09:46:28.974Z,18.08
2023-03-04T09:48:56.098Z,17.05
2023-03-04T09:51:42.356Z,18.65
2023-03-04T09:54:15.795Z,19.05
2023-03-04T09:56:42.866Z,18.02
2023-03-04T09:59:16.022Z,18.83
2023-03-04T10:04:14.192Z,17.05
2023-03-04T10:06:41.941Z,16.27
2023-03-04T10:09:14.743Z,18.45
2023-03-04T10:12:03.331Z,15.77
2023-03-04T10:14:40.717Z,15.38
2023-03-04T10:17:09.669Z,15.25
2023-03-04T10:19:58.879Z,17.38
2023-03-04T10:22:47.444Z,14.90
2023-03-04T10:25:35.126Z,16.35
2023-03-04T10:28:11.234Z,16.73
2023-03-04T10:31:02.824Z,16.58
2023-03-04T10:33:31.800Z,16.33
2023-03-04T10:35:58.483Z,16.40
2023-03-04T10:38:25.218Z,17.88
2023-03-04T10:40:51.922Z,17.83
2023-03-04T10:43:19.885Z,15.85
2023-03-04T10:45:47.241Z,15.57
2023-03-04T10:48:25.029Z,17.50
2023-03-04T10:50:51.754Z,18.15
2023-03-04T10:53:25.953Z,18.63
2023-03-04T10:55:52.821Z,18.08
2023-03-04T10:58:19.687Z,16.52
2023-03-04T11:01:00.288Z,17.92
2023-03-04T11:03:35.984Z,18.65
2023-03-04T11:06:22.734Z,19.00
2023-03-04T11:08:57.516Z,19.77
2023-03-04T11:11:47.842Z,18.90
2023-03-04T11:14:29.716Z,18.98
2023-03-04T11:17:01.971Z,20.45
2023-03-04T11:19:36.097Z,19.77
2023-03-04T11:22:02.877Z,21.08
2023-03-04T11:24:31.024Z,20.75
2023-03-04T11:27:20.162Z,24.35
2023-03-04T11:29:49.381Z,22.40
2023-03-04T11:32:21.523Z,21.45
2023-03-04T11:34:57.456Z,22.17
2023-03-04T11:37:36.780Z,20.70
2023-03-04T11:40:24.168Z,19.67
2023-03-04T11:42:50.795Z,21.00
2023-03-04T11:45:29.565Z,21.77
2023-03-04T11:48:13.256Z,21.98
2023-03-04T11:50:49.993Z,22.40
2023-03-04T11:53:45.326Z,21.88
2023-03-04T11:56:14.860Z,22.05
2023-03-04T11:59:04.692Z,22.60
2023-03-04T12:01:50.117Z,23.17
2023-03-04T12:04:23.165Z,23.20
2023-03-04T12:09:33.000Z,22.42
2023-03-04T12:12:51.039Z,23.08
2023-03-04T12:15:29.830Z,24.15
2023-03-04T12:18:10.443Z,21.88
2023-03-04T12:20:43.046Z,23.67
2023-03-04T12:23:16.153Z,25.20
2023-03-04T12:28:27.885Z,25.67
2023-03-04T12:31:21.073Z,25.13
2023-03-04T12:34:21.356Z,25.23
2023-03-04T12:37:13.171Z,25.13
2023-03-04T12:40:06.861Z,26.27
2023-03-04T12:45:30.836Z,24.98
2023-03-04T12:48:14.769Z,27.20
2023-03-04T12:50:51.621Z,25.98
2023-03-04T12:53:44.376Z,28.35
2023-03-04T12:56:27.428Z,27.07
2023-03-04T12:58:54.496Z,27.33
2023-03-04T13:01:28.687Z,27.17
2023-03-04T13:03:58.670Z,26.98
2023-03-04T13:06:54.942Z,25.95
2023-03-04T13:09:29.238Z,27.08
2023-03-04T13:12:05.631Z,26.95
2023-03-04T13:14:33.563Z,27.17
2023-03-04T13:17:37.251Z,26.02
2023-03-04T13:20:30.573Z,25.70
2023-03-04T13:23:00.475Z,26.00
2023-03-04T13:25:31.988Z,27.23
2023-03-04T13:28:15.590Z,25.83
2023-03-04T13:30:43.359Z,25.35
2023-03-04T13:33:10.728Z,26.13
2023-03-04T13:35:51.346Z,24.17
2023-03-04T13:38:27.229Z,24.60
2023-03-04T13:41:20.262Z,23.75
2023-03-04T13:43:52.952Z,22.58
2023-03-04T13:46:19.797Z,22.25
2023-03-04T13:48:49.775Z,21.90
2023-03-04T13:51:37.320Z,21.80
2023-03-04T13:54:19.591Z,21.88
2023-03-04T13:57:02.763Z,19.98
2023-03-04T13:59:35.037Z,18.52
2023-03-04T14:02:17.262Z,18.27
2023-03-04T14:04:45.963Z,17.75
2023-03-04T14:07:39.757Z,18.48
2023-03-04T14:10:12.630Z,19.00
2023-03-04T14:12:56.344Z,20.17
2023-03-04T14:15:27.581Z,21.00
2023-03-04T14:17:58.896Z,20.65
2023-03-04T14:20:39.679Z,20.38
2023-03-04T14:23:35.543Z,21.67
2023-03-04T14:26:15.338Z,21.60
2023-03-04T14:28:50.155Z,22.35
2023-03-04T14:31:21.694Z,22.05
2023-03-04T14:33:59.844Z,22.33
2023-03-04T14:36:26.774Z,20.98
2023-03-04T14:38:59.025Z,22.83
2023-03-04T14:41:30.539Z,23.30
2023-03-04T14:44:25.317Z,21.48
2023-03-04T14:47:06.973Z,21.15
2023-03-04T14:49:36.624Z,21.55
2023-03-04T14:52:04.547Z,21.30
2023-03-04T14:54:36.761Z,22.02
2023-03-04T14:57:35.969Z,20.77
2023-03-04T15:00:27.141Z,21.58
2023-03-04T15:02:59.527Z,20.88
2023-03-04T15:05:27.702Z,21.30
2023-03-04T15:08:01.850Z,21.88
2023-03-04T15:10:36.645Z,21.42
2023-03-04T15:13:06.563Z,20.95
2023-03-04T15:15:44.177Z,22.95
2023-03-04T15:18:16.910Z,21.90
2023-03-04T15:20:51.961Z,22.33
2023-03-04T15:23:18.933Z,21.35
2023-03-04T15:25:45.652Z,22.83
2023-03-04T15:28:18.291Z,21.88
2023-03-04T15:30:45.333Z,24.65
2023-03-04T15:33:12.973Z,25.02
2023-03-04T15:35:40.076Z,22.58
2023-03-04T15:38:07.435Z,21.40
2023-03-04T15:40:39.278Z,22.48
2023-03-04T15:43:06.750Z,20.45
2023-03-04T15:45:36.965Z,21.95
2023-03-04T15:48:07.957Z,20.00
2023-03-04T15:50:39.648Z,21.88
2023-03-04T15:53:09.218Z,22.70
2023-03-04T15:55:35.892Z,21.63
2023-03-04T15:58:02.747Z,20.92
2023-03-04T16:00:30.913Z,21.73
2023-03-04T16:02:58.087Z,20.80
2023-03-04T16:05:24.840Z,20.10
2023-03-04T16:07:51.863Z,20.83
2023-03-04T16:10:23.143Z,19.60
2023-03-04T16:12:56.328Z,21.70
2023-03-04T16:17:51.405Z,17.30
2023-03-04T16:20:23.746Z,19.13
2023-03-04T16:22:52.865Z,20.67
2023-03-04T16:25:19.683Z,21.20
2023-03-04T16:27:47.773Z,19.58
2023-03-04T16:30:20.229Z,20.42
2023-03-04T16:32:47.155Z,21.55
2023-03-04T16:35:14.663Z,20.50
2023-03-04T16:37:44.722Z,21.52
2023-03-04T16:40:14.486Z,20.80
2023-03-04T16:42:41.749Z,19.83
2023-03-04T16:45:19.302Z,21.38
2023-03-04T16:47:46.406Z,24.02
2023-03-04T16:50:18.404Z,21.20
2023-03-04T16:52:45.996Z,22.13
2023-03-04T16:55:25.751Z,21.50
2023-03-04T16:57:54.128Z,21.17
2023-03-04T17:00:23.158Z,22.42
2023-03-04T17:03:00.510Z,21.85
2023-03-04T17:05:29.476Z,21.45
2023-03-04T17:07:56.370Z,21.48
2023-03-04T17:10:23.671Z,23.10
2023-03-04T17:12:51.050Z,20.08
2023-03-04T17:15:18.070Z,20.92
2023-03-04T17:17:44.915Z,19.67
2023-03-04T17:20:14.405Z,19.50
2023-03-04T17:22:41.385Z,19.50
2023-03-04T17:25:08.559Z,20.35
2023-03-04T17:27:35.686Z,22.17
2023-03-04T17:30:03.535Z,25.05
2023-03-04T17:32:32.716Z,29.50
2023-03-04T17:34:59.961Z,23.48
2023-03-04T17:37:27.842Z,19.58
2023-03-04T17:39:54.560Z,21.58
2023-03-04T17:42:21.432Z,21.58
2023-03-04T17:44:48.328Z,21.58
2023-03-04T17:47:16.088Z,21.38
2023-03-04T17:49:43.142Z,21.45
2023-03-04T17:52:10.948Z,23.00
2023-03-04T17:54:38.112Z,24.40
2023-03-04T17:57:05.175Z,22.92
2023-03-04T17:59:31.995Z,20.42
2023-03-04T18:01:58.851Z,21.75
2023-03-04T18:04:27.614Z,22.35
2023-03-04T18:06:54.655Z,20.77
2023-03-04T18:09:24.085Z,21.80
2023-03-04T18:11:54.171Z,22.20
2023-03-04T18:14:22.182Z,22.33
2023-03-04T18:16:48.876Z,20.73
2023-03-04T18:19:18.663Z,21.83
2023-03-04T18:21:46.618Z,23.42
2023-03-04T18:24:14.328Z,21.95
2023-03-04T18:26:41.583Z,22.65
2023-03-04T18:29:08.533Z,24.77
2023-03-04T18:31:37.085Z,32.00
2023-03-04T18:34:04.923Z,33.55
2023-03-04T18:36:31.960Z,26.17
2023-03-04T18:39:07.607Z,23.33
2023-03-04T18:41:34.537Z,21.20
2023-03-04T18:44:01.424Z,22.13
2023-03-04T18:46:35.082Z,24.27
2023-03-04T18:49:08.885Z,21.60
2023-03-04T18:51:37.893Z,21.55
2023-03-04T18:54:27.514Z,25.38
2023-03-04T18:56:58.046Z,25.38
2023-03-04T18:59:31.523Z,23.65
2023-03-04T19:01:58.494Z,21.90
2023-03-04T19:04:26.467Z,21.52
2023-03-04T19:06:53.533Z,21.10
2023-03-04T19:09:20.357Z,19.35
2023-03-04T19:11:47.145Z,21.40
2023-03-04T19:14:13.939Z,21.58
2023-03-04T19:16:40.843Z,20.88
2023-03-04T19:19:07.656Z,21.60
2023-03-04T19:21:38.372Z,19.63
2023-03-04T19:24:05.691Z,21.55
2023-03-04T19:26:32.452Z,21.08
2023-03-04T19:28:59.165Z,20.60
2023-03-04T19:31:25.942Z,22.48
2023-03-04T19:33:52.621Z,20.80
2023-03-04T19:36:19.308Z,20.45
2023-03-04T19:38:46.173Z,21.15
2023-03-04T19:41:15.102Z,19.27
2023-03-04T19:43:41.976Z,18.23
2023-03-04T19:46:09.614Z,21.20
2023-03-04T19:48:37.236Z,19.17
2023-03-04T19:51:05.187Z,18.33
2023-03-04T19:53:34.730Z,20.25
2023-03-04T19:56:01.724Z,19.88
2023-03-04T19:58:28.476Z,19.98
2023-03-04T20:00:56.333Z,19.45
2023-03-04T20:03:24.140Z,18.08
2023-03-04T20:05:50.847Z,19.67
2023-03-04T20:08:17.519Z,20.55
2023-03-04T20:10:44.260Z,18.95
2023-03-04T20:13:10.953Z,19.20
2023-03-04T20:15:37.723Z,19.42
2023-03-04T20:18:04.607Z,20.27
2023-03-04T20:20:31.274Z,20.05
2023-03-04T20:22:58.260Z,21.00
2023-03-04T20:25:25.313Z,21.10
2023-03-04T20:27:52.010Z,20.95
2023-03-04T20:30:19.016Z,20.00
2023-03-04T20:32:45.852Z,20.00
2023-03-04T20:35:15.108Z,19.90
2023-03-04T20:37:42.413Z,19.50
2023-03-04T20:40:13.647Z,18.30
2023-03-04T20:42:40.418Z,18.75
2023-03-04T20:45:07.830Z,19.02
2023-03-04T20:47:34.827Z,19.90
2023-03-04T20:50:01.540Z,18.60
2023-03-04T20:52:28.241Z,18.33
2023-03-04T20:54:54.957Z,18.67
2023-03-04T20:57:21.905Z,17.80
2023-03-04T20:59:49.078Z,17.20
2023-03-04T21:02:17.193Z,19.08
2023-03-04T21:04:44.059Z,19.33
2023-03-04T21:07:12.317Z,19.00
2023-03-04T21:09:38.983Z,19.45
2023-03-04T21:12:05.905Z,16.60
2023-03-04T21:14:32.737Z,18.15
2023-03-04T21:17:03.012Z,18.40
2023-03-04T21:19:32.446Z,19.77
2023-03-04T21:22:01.804Z,18.02
2023-03-04T21:24:30.903Z,18.05
2023-03-04T21:26:58.250Z,17.83
2023-03-04T21:29:28.186Z,18.23
2023-03-04T21:32:22.411Z,19.15
2023-03-04T21:34:52.077Z,17.77
2023-03-04T21:37:22.216Z,17.73
2023-03-04T21:39:49.043Z,17.75
2023-03-04T21:42:15.882Z,17.95
2023-03-04T21:44:49.500Z,16.65
2023-03-04T21:47:18.023Z,17.88
2023-03-04T21:49:44.838Z,16.48
2023-03-04T21:52:11.653Z,15.85
2023-03-04T21:54:38.322Z,17.30
2023-03-04T21:57:05.046Z,18.30
2023-03-04T21:59:31.910Z,18.00
2023-03-04T22:01:58.771Z,17.17
2023-03-04T22:04:25.942Z,18.20
2023-03-04T22:06:52.684Z,19.50
2023-03-04T22:09:19.354Z,16.65
2023-03-04T22:11:46.164Z,17.80
2023-03-04T22:14:13.201Z,16.90
2023-03-04T22:16:54.130Z,17.50
2023-03-04T22:19:25.831Z,17.33
2023-03-04T22:21:53.133Z,16.90
2023-03-04T22:24:20.582Z,17.90
2023-03-04T22:26:47.346Z,17.05
2023-03-04T22:29:14.106Z,18.77
2023-03-04T22:31:40.849Z,17.23
2023-03-04T22:34:12.778Z,18.58
2023-03-04T22:36:41.895Z,19.50
2023-03-04T22:39:10.321Z,16.67
2023-03-04T22:41:37.401Z,19.08
2023-03-04T22:44:06.316Z,18.23
2023-03-04T22:46:34.390Z,19.38
2023-03-04T22:49:04.936Z,18.15
2023-03-04T22:51:32.117Z,19.25
2023-03-04T22:53:58.817Z,17.98
2023-03-04T22:56:25.551Z,17.70
2023-03-04T22:58:52.274Z,17.95
2023-03-04T23:01:20.069Z,18.08
2023-03-04T23:03:48.300Z,17.33
2023-03-04T23:06:18.798Z,19.15
2023-03-04T23:08:47.743Z,19.13
2023-03-04T23:11:17.698Z,18.90
2023-03-04T23:13:44.642Z,18.00
2023-03-04T23:16:12.039Z,17.10
2023-03-04T23:18:39.927Z,17.77
2023-03-04T23:21:11.768Z,18.05
2023-03-04T23:23:39.225Z,16.95
2023-03-04T23:26:06.795Z,18.10
2023-03-04T23:28:33.451Z,18.13
2023-03-04T23:31:05.023Z,18.95
2023-03-04T23:33:32.878Z,20.23
2023-03-04T23:35:59.573Z,20.60
2023-03-04T23:38:26.296Z,21.48
2023-03-04T23:40:53.002Z,19.25
2023-03-04T23:43:19.756Z,18.00
2023-03-04T23:45:46.378Z,19.75
2023-03-04T23:48:13.170Z,19.58
2023-03-04T23:50:49.797Z,19.17
2023-03-04T23:53:18.641Z,17.33
2023-03-04T23:55:45.711Z,17.17
2023-03-04T23:58:12.682Z,16.80
